sensor_id;sensor_type;location;lat;lon;timestamp;P1;durP1;ratioP1;P2;durP2;ratioP2
2452;SDS011;63678;47.994;7.854;2023-08-12T00:01:29;7.30;;;4.13;;
2452;SDS011;63678;47.994;7.854;2023-08-12T00:04:02;6.45;;;3.88;;
2452;SDS011;63678;47.994;7.854;2023-08-12T00:06:35;5.20;;;3.93;;
2452;SDS011;63678;47.994;7.854;2023-08-12T00:09:07;7.05;;;4.00;;
2452;SDS011;63678;47.994;7.854;2023-08-12T00:11:41;6.95;;;3.63;;
2452;SDS011;63678;47.994;7.854;2023-08-12T00:14:14;11.02;;;3.67;;
2452;SDS011;63678;47.994;7.854;2023-08-12T00:16:46;6.97;;;3.90;;
2452;SDS011;63678;47.994;7.854;2023-08-12T00:19:18;6.87;;;4.27;;
2452;SDS011;63678;47.994;7.854;2023-08-12T00:21:51;9.23;;;4.00;;
2452;SDS011;63678;47.994;7.854;2023-08-12T00:24:24;7.10;;;3.53;;
2452;SDS011;63678;47.994;7.854;2023-08-12T00:26:56;6.90;;;3.85;;
2452;SDS011;63678;47.994;7.854;2023-08-12T00:29:29;6.78;;;3.90;;
2452;SDS011;63678;47.994;7.854;2023-08-12T00:32:03;6.70;;;3.80;;
2452;SDS011;63678;47.994;7.854;2023-08-12T00:34:36;5.68;;;3.53;;
2452;SDS011;63678;47.994;7.854;2023-08-12T00:37:08;6.22;;;3.78;;
2452;SDS011;63678;47.994;7.854;2023-08-12T00:39:42;6.60;;;3.80;;
2452;SDS011;63678;47.994;7.854;2023-08-12T00:42:14;7.93;;;3.42;;
2452;SDS011;63678;47.994;7.854;2023-08-12T00:44:47;7.80;;;3.90;;
2452;SDS011;63678;47.994;7.854;2023-08-12T00:47:19;6.15;;;4.10;;
2452;SDS011;63678;47.994;7.854;2023-08-12T00:49:53;6.35;;;3.85;;
2452;SDS011;63678;47.994;7.854;2023-08-12T00:52:27;8.27;;;3.67;;
2452;SDS011;63678;47.994;7.854;2023-08-12T00:55:00;6.53;;;3.70;;
2452;SDS011;63678;47.994;7.854;2023-08-12T00:57:34;6.40;;;3.87;;
2452;SDS011;63678;47.994;7.854;2023-08-12T01:00:08;6.65;;;3.70;;
2452;SDS011;63678;47.994;7.854;2023-08-12T01:02:42;5.38;;;3.60;;
2452;SDS011;63678;47.994;7.854;2023-08-12T01:05:20;5.88;;;3.30;;
2452;SDS011;63678;47.994;7.854;2023-08-12T01:07:52;6.35;;;3.70;;
2452;SDS011;63678;47.994;7.854;2023-08-12T01:10:25;6.00;;;3.53;;
2452;SDS011;63678;47.994;7.854;2023-08-12T01:13:49;6.70;;;3.70;;
2452;SDS011;63678;47.994;7.854;2023-08-12T01:16:13;6.70;;;3.90;;
2452;SDS011;63678;47.994;7.854;2023-08-12T01:18:49;8.13;;;3.63;;
2452;SDS011;63678;47.994;7.854;2023-08-12T01:21:22;6.03;;;4.00;;
2452;SDS011;63678;47.994;7.854;2023-08-12T01:23:59;6.17;;;3.33;;
2452;SDS011;63678;47.994;7.854;2023-08-12T01:26:32;6.85;;;3.60;;
2452;SDS011;63678;47.994;7.854;2023-08-12T01:29:04;8.05;;;3.67;;
2452;SDS011;63678;47.994;7.854;2023-08-12T01:31:39;4.90;;;3.47;;
2452;SDS011;63678;47.994;7.854;2023-08-12T01:37:21;5.73;;;3.30;;
2452;SDS011;63678;47.994;7.854;2023-08-12T01:39:59;8.38;;;3.90;;
2452;SDS011;63678;47.994;7.854;2023-08-12T01:42:38;7.10;;;3.63;;
2452;SDS011;63678;47.994;7.854;2023-08-12T01:45:11;6.25;;;3.97;;
2452;SDS011;63678;47.994;7.854;2023-08-12T01:47:44;5.47;;;3.78;;
2452;SDS011;63678;47.994;7.854;2023-08-12T01:50:17;7.10;;;3.80;;
2452;SDS011;63678;47.994;7.854;2023-08-12T01:52:50;5.75;;;3.80;;
2452;SDS011;63678;47.994;7.854;2023-08-12T01:55:23;6.68;;;3.60;;
2452;SDS011;63678;47.994;7.854;2023-08-12T01:57:55;6.55;;;3.80;;
2452;SDS011;63678;47.994;7.854;2023-08-12T02:00:28;7.13;;;3.85;;
2452;SDS011;63678;47.994;7.854;2023-08-12T02:03:01;6.90;;;3.60;;
2452;SDS011;63678;47.994;7.854;2023-08-12T02:05:34;8.02;;;3.60;;
2452;SDS011;63678;47.994;7.854;2023-08-12T02:08:07;6.97;;;3.35;;
2452;SDS011;63678;47.994;7.854;2023-08-12T02:10:40;7.22;;;3.53;;
2452;SDS011;63678;47.994;7.854;2023-08-12T02:13:13;6.68;;;4.10;;
2452;SDS011;63678;47.994;7.854;2023-08-12T02:15:45;7.07;;;4.00;;
2452;SDS011;63678;47.994;7.854;2023-08-12T02:18:17;6.65;;;3.67;;
2452;SDS011;63678;47.994;7.854;2023-08-12T02:20:50;10.30;;;5.35;;
2452;SDS011;63678;47.994;7.854;2023-08-12T02:23:22;10.10;;;5.10;;
2452;SDS011;63678;47.994;7.854;2023-08-12T02:25:56;6.47;;;4.07;;
2452;SDS011;63678;47.994;7.854;2023-08-12T02:28:30;7.83;;;3.80;;
2452;SDS011;63678;47.994;7.854;2023-08-12T02:31:03;5.60;;;3.40;;
2452;SDS011;63678;47.994;7.854;2023-08-12T02:33:35;5.72;;;3.50;;
2452;SDS011;63678;47.994;7.854;2023-08-12T02:36:07;7.80;;;3.58;;
2452;SDS011;63678;47.994;7.854;2023-08-12T02:38:43;6.45;;;3.60;;
2452;SDS011;63678;47.994;7.854;2023-08-12T02:41:15;9.37;;;3.80;;
2452;SDS011;63678;47.994;7.854;2023-08-12T02:43:47;7.38;;;4.13;;
2452;SDS011;63678;47.994;7.854;2023-08-12T02:46:19;5.60;;;3.60;;
2452;SDS011;63678;47.994;7.854;2023-08-12T02:48:52;5.57;;;3.65;;
2452;SDS011;63678;47.994;7.854;2023-08-12T02:51:24;8.23;;;4.35;;
2452;SDS011;63678;47.994;7.854;2023-08-12T02:53:57;6.03;;;3.50;;
2452;SDS011;63678;47.994;7.854;2023-08-12T02:56:29;10.20;;;3.92;;
2452;SDS011;63678;47.994;7.854;2023-08-12T02:59:01;7.25;;;3.95;;
2452;SDS011;63678;47.994;7.854;2023-08-12T03:01:34;6.18;;;4.07;;
2452;SDS011;63678;47.994;7.854;2023-08-12T03:04:06;7.38;;;3.80;;
2452;SDS011;63678;47.994;7.854;2023-08-12T03:06:39;5.87;;;3.73;;
2452;SDS011;63678;47.994;7.854;2023-08-12T03:09:11;6.97;;;3.60;;
2452;SDS011;63678;47.994;7.854;2023-08-12T03:11:48;6.13;;;3.50;;
2452;SDS011;63678;47.994;7.854;2023-08-12T03:14:20;7.07;;;3.90;;
2452;SDS011;63678;47.994;7.854;2023-08-12T03:16:53;6.80;;;3.70;;
2452;SDS011;63678;47.994;7.854;2023-08-12T03:19:26;6.23;;;4.30;;
2452;SDS011;63678;47.994;7.854;2023-08-12T03:21:58;5.60;;;3.50;;
2452;SDS011;63678;47.994;7.854;2023-08-12T03:24:31;5.72;;;3.50;;
2452;SDS011;63678;47.994;7.854;2023-08-12T03:27:03;8.38;;;3.35;;
2452;SDS011;63678;47.994;7.854;2023-08-12T03:29:36;5.53;;;3.22;;
2452;SDS011;63678;47.994;7.854;2023-08-12T03:32:08;6.63;;;3.40;;
2452;SDS011;63678;47.994;7.854;2023-08-12T03:34:41;6.90;;;3.67;;
2452;SDS011;63678;47.994;7.854;2023-08-12T03:37:14;6.72;;;4.10;;
2452;SDS011;63678;47.994;7.854;2023-08-12T03:39:47;8.23;;;3.88;;
2452;SDS011;63678;47.994;7.854;2023-08-12T03:42:20;9.27;;;3.55;;
2452;SDS011;63678;47.994;7.854;2023-08-12T03:44:53;8.77;;;3.90;;
2452;SDS011;63678;47.994;7.854;2023-08-12T03:47:25;7.22;;;3.97;;
2452;SDS011;63678;47.994;7.854;2023-08-12T03:49:57;7.07;;;3.63;;
2452;SDS011;63678;47.994;7.854;2023-08-12T03:52:30;6.10;;;3.33;;
2452;SDS011;63678;47.994;7.854;2023-08-12T03:55:02;5.80;;;3.53;;
2452;SDS011;63678;47.994;7.854;2023-08-12T03:57:36;7.10;;;3.70;;
2452;SDS011;63678;47.994;7.854;2023-08-12T04:00:10;5.45;;;3.50;;
2452;SDS011;63678;47.994;7.854;2023-08-12T04:02:45;6.07;;;3.78;;
2452;SDS011;63678;47.994;7.854;2023-08-12T04:05:18;5.57;;;3.35;;
2452;SDS011;63678;47.994;7.854;2023-08-12T04:07:50;7.80;;;3.97;;
2452;SDS011;63678;47.994;7.854;2023-08-12T04:10:22;7.70;;;3.50;;
2452;SDS011;63678;47.994;7.854;2023-08-12T04:12:55;6.63;;;3.67;;
2452;SDS011;63678;47.994;7.854;2023-08-12T04:15:27;6.82;;;3.60;;
2452;SDS011;63678;47.994;7.854;2023-08-12T04:18:00;6.47;;;4.00;;
2452;SDS011;63678;47.994;7.854;2023-08-12T04:20:32;5.47;;;3.85;;
2452;SDS011;63678;47.994;7.854;2023-08-12T04:23:05;5.83;;;3.63;;
2452;SDS011;63678;47.994;7.854;2023-08-12T04:25:37;6.07;;;3.72;;
2452;SDS011;63678;47.994;7.854;2023-08-12T04:28:09;6.93;;;3.88;;
2452;SDS011;63678;47.994;7.854;2023-08-12T04:30:43;5.20;;;3.30;;
2452;SDS011;63678;47.994;7.854;2023-08-12T04:33:19;9.23;;;4.05;;
2452;SDS011;63678;47.994;7.854;2023-08-12T04:35:53;8.63;;;3.80;;
2452;SDS011;63678;47.994;7.854;2023-08-12T04:38:27;5.32;;;3.33;;
2452;SDS011;63678;47.994;7.854;2023-08-12T04:41:02;6.97;;;3.80;;
2452;SDS011;63678;47.994;7.854;2023-08-12T04:43:34;7.28;;;3.90;;
2452;SDS011;63678;47.994;7.854;2023-08-12T04:46:07;8.45;;;3.92;;
2452;SDS011;63678;47.994;7.854;2023-08-12T04:48:40;7.00;;;3.77;;
2452;SDS011;63678;47.994;7.854;2023-08-12T04:51:13;8.77;;;3.47;;
2452;SDS011;63678;47.994;7.854;2023-08-12T04:53:47;6.38;;;3.80;;
2452;SDS011;63678;47.994;7.854;2023-08-12T04:56:19;6.53;;;3.88;;
2452;SDS011;63678;47.994;7.854;2023-08-12T04:58:51;6.00;;;3.55;;
2452;SDS011;63678;47.994;7.854;2023-08-12T05:01:24;6.83;;;3.40;;
2452;SDS011;63678;47.994;7.854;2023-08-12T05:03:57;6.47;;;3.63;;
2452;SDS011;63678;47.994;7.854;2023-08-12T05:06:29;5.78;;;3.58;;
2452;SDS011;63678;47.994;7.854;2023-08-12T05:09:02;6.13;;;3.58;;
2452;SDS011;63678;47.994;7.854;2023-08-12T05:11:35;6.00;;;3.20;;
2452;SDS011;63678;47.994;7.854;2023-08-12T05:14:07;6.23;;;3.40;;
2452;SDS011;63678;47.994;7.854;2023-08-12T05:16:40;7.90;;;4.10;;
2452;SDS011;63678;47.994;7.854;2023-08-12T05:19:12;5.85;;;3.85;;
2452;SDS011;63678;47.994;7.854;2023-08-12T05:21:44;6.20;;;3.72;;
2452;SDS011;63678;47.994;7.854;2023-08-12T05:24:17;6.03;;;3.80;;
2452;SDS011;63678;47.994;7.854;2023-08-12T05:26:49;6.00;;;3.57;;
2452;SDS011;63678;47.994;7.854;2023-08-12T05:29:22;7.93;;;4.35;;
2452;SDS011;63678;47.994;7.854;2023-08-12T05:31:54;7.82;;;3.42;;
2452;SDS011;63678;47.994;7.854;2023-08-12T05:34:26;6.82;;;3.80;;
2452;SDS011;63678;47.994;7.854;2023-08-12T05:36:59;5.53;;;3.92;;
2452;SDS011;63678;47.994;7.854;2023-08-12T05:39:31;8.17;;;4.27;;
2452;SDS011;63678;47.994;7.854;2023-08-12T05:42:04;6.65;;;4.28;;
2452;SDS011;63678;47.994;7.854;2023-08-12T05:44:36;7.70;;;3.97;;
2452;SDS011;63678;47.994;7.854;2023-08-12T05:47:09;7.03;;;3.95;;
2452;SDS011;63678;47.994;7.854;2023-08-12T05:49:41;5.50;;;3.67;;
2452;SDS011;63678;47.994;7.854;2023-08-12T05:52:14;5.97;;;3.50;;
2452;SDS011;63678;47.994;7.854;2023-08-12T05:54:46;7.22;;;3.80;;
2452;SDS011;63678;47.994;7.854;2023-08-12T05:57:19;6.65;;;3.55;;
2452;SDS011;63678;47.994;7.854;2023-08-12T05:59:52;6.78;;;3.83;;
2452;SDS011;63678;47.994;7.854;2023-08-12T06:02:25;7.70;;;4.10;;
2452;SDS011;63678;47.994;7.854;2023-08-12T06:04:58;8.17;;;4.30;;
2452;SDS011;63678;47.994;7.854;2023-08-12T06:07:30;5.88;;;3.80;;
2452;SDS011;63678;47.994;7.854;2023-08-12T06:10:03;5.70;;;3.70;;
2452;SDS011;63678;47.994;7.854;2023-08-12T06:12:36;5.53;;;3.40;;
2452;SDS011;63678;47.994;7.854;2023-08-12T06:15:09;7.72;;;3.92;;
2452;SDS011;63678;47.994;7.854;2023-08-12T06:17:41;7.13;;;4.00;;
2452;SDS011;63678;47.994;7.854;2023-08-12T06:20:14;9.35;;;3.78;;
2452;SDS011;63678;47.994;7.854;2023-08-12T06:22:46;8.45;;;4.00;;
2452;SDS011;63678;47.994;7.854;2023-08-12T06:25:18;8.32;;;4.05;;
2452;SDS011;63678;47.994;7.854;2023-08-12T06:27:51;6.70;;;4.10;;
2452;SDS011;63678;47.994;7.854;2023-08-12T06:30:23;7.10;;;4.30;;
2452;SDS011;63678;47.994;7.854;2023-08-12T06:32:55;5.95;;;3.70;;
2452;SDS011;63678;47.994;7.854;2023-08-12T06:35:29;5.97;;;3.92;;
2452;SDS011;63678;47.994;7.854;2023-08-12T06:38:01;6.70;;;3.58;;
2452;SDS011;63678;47.994;7.854;2023-08-12T06:40:33;6.40;;;4.10;;
2452;SDS011;63678;47.994;7.854;2023-08-12T06:43:05;6.57;;;3.80;;
2452;SDS011;63678;47.994;7.854;2023-08-12T06:45:40;7.25;;;4.88;;
2452;SDS011;63678;47.994;7.854;2023-08-12T06:48:12;8.73;;;4.43;;
2452;SDS011;63678;47.994;7.854;2023-08-12T06:50:45;5.93;;;3.83;;
2452;SDS011;63678;47.994;7.854;2023-08-12T06:53:17;6.75;;;4.03;;
2452;SDS011;63678;47.994;7.854;2023-08-12T06:55:49;7.23;;;4.03;;
2452;SDS011;63678;47.994;7.854;2023-08-12T06:58:21;6.68;;;3.88;;
2452;SDS011;63678;47.994;7.854;2023-08-12T07:00:54;7.63;;;3.97;;
2452;SDS011;63678;47.994;7.854;2023-08-12T07:03:26;6.05;;;3.60;;
2452;SDS011;63678;47.994;7.854;2023-08-12T07:05:59;5.65;;;3.55;;
2452;SDS011;63678;47.994;7.854;2023-08-12T07:08:31;6.83;;;4.07;;
2452;SDS011;63678;47.994;7.854;2023-08-12T07:11:04;7.15;;;4.05;;
2452;SDS011;63678;47.994;7.854;2023-08-12T07:13:36;6.05;;;3.80;;
2452;SDS011;63678;47.994;7.854;2023-08-12T07:16:08;9.75;;;3.67;;
2452;SDS011;63678;47.994;7.854;2023-08-12T07:18:41;7.25;;;3.40;;
2452;SDS011;63678;47.994;7.854;2023-08-12T07:21:13;5.70;;;3.97;;
2452;SDS011;63678;47.994;7.854;2023-08-12T07:23:45;8.20;;;4.10;;
2452;SDS011;63678;47.994;7.854;2023-08-12T07:26:34;6.18;;;3.85;;
2452;SDS011;63678;47.994;7.854;2023-08-12T07:29:06;8.85;;;3.42;;
2452;SDS011;63678;47.994;7.854;2023-08-12T07:31:38;7.32;;;3.80;;
2452;SDS011;63678;47.994;7.854;2023-08-12T07:34:11;6.57;;;4.00;;
2452;SDS011;63678;47.994;7.854;2023-08-12T07:36:44;6.47;;;3.75;;
2452;SDS011;63678;47.994;7.854;2023-08-12T07:39:17;6.30;;;3.97;;
2452;SDS011;63678;47.994;7.854;2023-08-12T07:41:50;8.05;;;3.83;;
2452;SDS011;63678;47.994;7.854;2023-08-12T07:44:22;5.63;;;3.88;;
2452;SDS011;63678;47.994;7.854;2023-08-12T07:46:54;8.57;;;3.87;;
2452;SDS011;63678;47.994;7.854;2023-08-12T07:49:27;7.00;;;4.15;;
2452;SDS011;63678;47.994;7.854;2023-08-12T07:51:59;5.78;;;3.45;;
2452;SDS011;63678;47.994;7.854;2023-08-12T07:54:31;8.32;;;4.95;;
2452;SDS011;63678;47.994;7.854;2023-08-12T07:57:04;7.82;;;4.40;;
2452;SDS011;63678;47.994;7.854;2023-08-12T07:59:36;10.80;;;5.23;;
2452;SDS011;63678;47.994;7.854;2023-08-12T08:02:08;10.13;;;4.78;;
2452;SDS011;63678;47.994;7.854;2023-08-12T08:04:41;11.10;;;4.20;;
2452;SDS011;63678;47.994;7.854;2023-08-12T08:07:15;11.70;;;4.90;;
2452;SDS011;63678;47.994;7.854;2023-08-12T08:09:48;8.68;;;4.88;;
2452;SDS011;63678;47.994;7.854;2023-08-12T08:12:20;8.83;;;4.43;;
2452;SDS011;63678;47.994;7.854;2023-08-12T08:14:53;8.00;;;4.80;;
2452;SDS011;63678;47.994;7.854;2023-08-12T08:17:25;8.70;;;5.03;;
2452;SDS011;63678;47.994;7.854;2023-08-12T08:19:57;9.30;;;4.95;;
2452;SDS011;63678;47.994;7.854;2023-08-12T08:22:30;7.88;;;5.00;;
2452;SDS011;63678;47.994;7.854;2023-08-12T08:25:03;8.93;;;5.13;;
2452;SDS011;63678;47.994;7.854;2023-08-12T08:27:36;8.95;;;5.00;;
2452;SDS011;63678;47.994;7.854;2023-08-12T08:30:08;10.65;;;4.82;;
2452;SDS011;63678;47.994;7.854;2023-08-12T08:32:41;7.60;;;4.75;;
2452;SDS011;63678;47.994;7.854;2023-08-12T08:35:14;7.70;;;4.70;;
2452;SDS011;63678;47.994;7.854;2023-08-12T08:37:47;8.80;;;5.17;;
2452;SDS011;63678;47.994;7.854;2023-08-12T08:40:19;8.20;;;4.95;;
2452;SDS011;63678;47.994;7.854;2023-08-12T08:42:52;7.15;;;4.70;;
2452;SDS011;63678;47.994;7.854;2023-08-12T08:45:25;8.77;;;4.82;;
2452;SDS011;63678;47.994;7.854;2023-08-12T08:47:58;8.93;;;4.93;;
2452;SDS011;63678;47.994;7.854;2023-08-12T08:50:32;8.63;;;5.00;;
2452;SDS011;63678;47.994;7.854;2023-08-12T08:53:06;13.63;;;5.45;;
2452;SDS011;63678;47.994;7.854;2023-08-12T08:55:40;10.73;;;4.97;;
2452;SDS011;63678;47.994;7.854;2023-08-12T08:58:13;10.43;;;5.13;;
2452;SDS011;63678;47.994;7.854;2023-08-12T09:00:52;12.35;;;5.13;;
2452;SDS011;63678;47.994;7.854;2023-08-12T09:03:25;12.50;;;5.00;;
2452;SDS011;63678;47.994;7.854;2023-08-12T09:05:58;9.40;;;4.93;;
2452;SDS011;63678;47.994;7.854;2023-08-12T09:08:31;8.07;;;5.45;;
2452;SDS011;63678;47.994;7.854;2023-08-12T09:11:04;9.13;;;5.55;;
2452;SDS011;63678;47.994;7.854;2023-08-12T09:13:39;25.58;;;7.82;;
2452;SDS011;63678;47.994;7.854;2023-08-12T09:16:11;11.67;;;5.60;;
2452;SDS011;63678;47.994;7.854;2023-08-12T09:18:44;12.80;;;5.57;;
2452;SDS011;63678;47.994;7.854;2023-08-12T09:21:17;10.35;;;5.32;;
2452;SDS011;63678;47.994;7.854;2023-08-12T09:23:49;10.10;;;5.45;;
2452;SDS011;63678;47.994;7.854;2023-08-12T09:26:22;13.52;;;6.47;;
2452;SDS011;63678;47.994;7.854;2023-08-12T09:28:54;13.03;;;6.40;;
2452;SDS011;63678;47.994;7.854;2023-08-12T09:31:27;10.80;;;6.65;;
2452;SDS011;63678;47.994;7.854;2023-08-12T09:34:03;10.48;;;5.90;;
2452;SDS011;63678;47.994;7.854;2023-08-12T09:36:38;9.00;;;5.65;;
2452;SDS011;63678;47.994;7.854;2023-08-12T09:39:12;8.20;;;5.30;;
2452;SDS011;63678;47.994;7.854;2023-08-12T09:41:45;8.50;;;5.00;;
2452;SDS011;63678;47.994;7.854;2023-08-12T09:44:17;9.50;;;4.97;;
2452;SDS011;63678;47.994;7.854;2023-08-12T09:46:55;8.70;;;4.80;;
2452;SDS011;63678;47.994;7.854;2023-08-12T09:49:29;8.30;;;4.68;;
2452;SDS011;63678;47.994;7.854;2023-08-12T09:52:03;9.82;;;4.60;;
2452;SDS011;63678;47.994;7.854;2023-08-12T09:54:36;10.33;;;6.00;;
2452;SDS011;63678;47.994;7.854;2023-08-12T09:57:10;9.73;;;5.20;;
2452;SDS011;63678;47.994;7.854;2023-08-12T09:59:44;10.07;;;4.70;;
2452;SDS011;63678;47.994;7.854;2023-08-12T10:02:18;8.70;;;4.32;;
2452;SDS011;63678;47.994;7.854;2023-08-12T10:04:53;6.55;;;4.13;;
2452;SDS011;63678;47.994;7.854;2023-08-12T10:07:28;5.93;;;3.80;;
2452;SDS011;63678;47.994;7.854;2023-08-12T10:10:01;8.18;;;4.22;;
2452;SDS011;63678;47.994;7.854;2023-08-12T10:12:38;7.85;;;4.43;;
2452;SDS011;63678;47.994;7.854;2023-08-12T10:15:12;6.50;;;4.03;;
2452;SDS011;63678;47.994;7.854;2023-08-12T10:17:46;7.68;;;4.30;;
2452;SDS011;63678;47.994;7.854;2023-08-12T10:20:21;8.10;;;4.10;;
2452;SDS011;63678;47.994;7.854;2023-08-12T10:22:57;8.00;;;4.72;;
2452;SDS011;63678;47.994;7.854;2023-08-12T10:25:33;9.13;;;4.32;;
2452;SDS011;63678;47.994;7.854;2023-08-12T10:28:07;7.93;;;4.80;;
2452;SDS011;63678;47.994;7.854;2023-08-12T10:30:40;10.27;;;4.85;;
2452;SDS011;63678;47.994;7.854;2023-08-12T10:33:14;7.77;;;4.43;;
2452;SDS011;63678;47.994;7.854;2023-08-12T10:35:51;7.55;;;4.15;;
2452;SDS011;63678;47.994;7.854;2023-08-12T10:38:28;8.15;;;4.72;;
2452;SDS011;63678;47.994;7.854;2023-08-12T10:44:01;7.90;;;4.38;;
2452;SDS011;63678;47.994;7.854;2023-08-12T10:46:37;12.37;;;5.07;;
2452;SDS011;63678;47.994;7.854;2023-08-12T10:52:31;7.78;;;4.32;;
2452;SDS011;63678;47.994;7.854;2023-08-12T10:55:22;7.57;;;4.50;;
2452;SDS011;63678;47.994;7.854;2023-08-12T10:57:58;8.10;;;4.93;;
2452;SDS011;63678;47.994;7.854;2023-08-12T11:00:30;6.40;;;4.60;;
2452;SDS011;63678;47.994;7.854;2023-08-12T11:03:03;9.10;;;4.90;;
2452;SDS011;63678;47.994;7.854;2023-08-12T11:05:41;11.70;;;4.18;;
2452;SDS011;63678;47.994;7.854;2023-08-12T11:08:14;8.75;;;4.35;;
2452;SDS011;63678;47.994;7.854;2023-08-12T11:10:52;7.00;;;4.65;;
2452;SDS011;63678;47.994;7.854;2023-08-12T11:13:30;6.60;;;4.30;;
2452;SDS011;63678;47.994;7.854;2023-08-12T11:16:07;8.00;;;5.07;;
2452;SDS011;63678;47.994;7.854;2023-08-12T11:18:41;9.52;;;4.40;;
2452;SDS011;63678;47.994;7.854;2023-08-12T11:21:14;10.88;;;4.55;;
2452;SDS011;63678;47.994;7.854;2023-08-12T11:23:47;9.88;;;4.10;;
2452;SDS011;63678;47.994;7.854;2023-08-12T11:26:23;9.80;;;4.80;;
2452;SDS011;63678;47.994;7.854;2023-08-12T11:28:56;11.18;;;4.60;;
2452;SDS011;63678;47.994;7.854;2023-08-12T11:31:33;9.05;;;4.68;;
2452;SDS011;63678;47.994;7.854;2023-08-12T11:34:06;9.48;;;5.07;;
2452;SDS011;63678;47.994;7.854;2023-08-12T11:36:39;13.52;;;6.05;;
2452;SDS011;63678;47.994;7.854;2023-08-12T11:39:16;12.60;;;5.63;;
2452;SDS011;63678;47.994;7.854;2023-08-12T11:41:52;12.35;;;6.70;;
2452;SDS011;63678;47.994;7.854;2023-08-12T11:44:25;10.13;;;6.95;;
2452;SDS011;63678;47.994;7.854;2023-08-12T11:47:10;9.80;;;5.30;;
2452;SDS011;63678;47.994;7.854;2023-08-12T11:49:43;11.93;;;5.75;;
2452;SDS011;63678;47.994;7.854;2023-08-12T11:52:16;9.23;;;4.53;;
2452;SDS011;63678;47.994;7.854;2023-08-12T11:54:49;9.02;;;5.05;;
2452;SDS011;63678;47.994;7.854;2023-08-12T11:57:22;8.75;;;5.53;;
2452;SDS011;63678;47.994;7.854;2023-08-12T11:59:58;10.43;;;5.40;;
2452;SDS011;63678;47.994;7.854;2023-08-12T12:05:21;10.80;;;5.63;;
2452;SDS011;63678;47.994;7.854;2023-08-12T12:08:04;9.68;;;4.55;;
2452;SDS011;63678;47.994;7.854;2023-08-12T12:10:38;11.55;;;4.55;;
2452;SDS011;63678;47.994;7.854;2023-08-12T12:13:11;8.85;;;4.57;;
2452;SDS011;63678;47.994;7.854;2023-08-12T12:15:59;10.68;;;4.50;;
2452;SDS011;63678;47.994;7.854;2023-08-12T12:18:32;10.27;;;4.57;;
2452;SDS011;63678;47.994;7.854;2023-08-12T12:21:07;8.32;;;4.95;;
2452;SDS011;63678;47.994;7.854;2023-08-12T12:23:41;10.63;;;4.97;;
2452;SDS011;63678;47.994;7.854;2023-08-12T12:26:57;11.00;;;5.10;;
2452;SDS011;63678;47.994;7.854;2023-08-12T12:29:45;10.40;;;5.85;;
2452;SDS011;63678;47.994;7.854;2023-08-12T12:32:22;8.20;;;4.60;;
2452;SDS011;63678;47.994;7.854;2023-08-12T12:34:55;9.50;;;4.50;;
2452;SDS011;63678;47.994;7.854;2023-08-12T12:37:30;11.45;;;4.72;;
2452;SDS011;63678;47.994;7.854;2023-08-12T12:40:04;9.35;;;4.97;;
2452;SDS011;63678;47.994;7.854;2023-08-12T12:42:37;11.10;;;4.25;;
2452;SDS011;63678;47.994;7.854;2023-08-12T12:45:10;9.17;;;4.30;;
2452;SDS011;63678;47.994;7.854;2023-08-12T12:47:42;9.05;;;4.30;;
2452;SDS011;63678;47.994;7.854;2023-08-12T12:50:15;13.18;;;4.80;;
2452;SDS011;63678;47.994;7.854;2023-08-12T12:52:48;8.25;;;4.10;;
2452;SDS011;63678;47.994;7.854;2023-08-12T12:55:21;8.73;;;4.03;;
2452;SDS011;63678;47.994;7.854;2023-08-12T12:57:53;10.73;;;4.17;;
2452;SDS011;63678;47.994;7.854;2023-08-12T13:00:26;8.65;;;4.07;;
2452;SDS011;63678;47.994;7.854;2023-08-12T13:02:58;11.02;;;3.97;;
2452;SDS011;63678;47.994;7.854;2023-08-12T13:05:31;8.95;;;4.18;;
2452;SDS011;63678;47.994;7.854;2023-08-12T13:08:04;7.85;;;4.60;;
2452;SDS011;63678;47.994;7.854;2023-08-12T13:10:37;7.27;;;3.97;;
2452;SDS011;63678;47.994;7.854;2023-08-12T13:13:09;9.95;;;4.00;;
2452;SDS011;63678;47.994;7.854;2023-08-12T13:15:50;9.02;;;4.47;;
2452;SDS011;63678;47.994;7.854;2023-08-12T13:18:23;9.27;;;4.32;;
2452;SDS011;63678;47.994;7.854;2023-08-12T13:20:56;8.48;;;4.47;;
2452;SDS011;63678;47.994;7.854;2023-08-12T13:23:29;9.80;;;4.63;;
2452;SDS011;63678;47.994;7.854;2023-08-12T13:26:02;7.35;;;4.43;;
2452;SDS011;63678;47.994;7.854;2023-08-12T13:28:35;7.30;;;4.30;;
2452;SDS011;63678;47.994;7.854;2023-08-12T13:31:07;9.05;;;5.60;;
2452;SDS011;63678;47.994;7.854;2023-08-12T13:33:40;8.07;;;4.20;;
2452;SDS011;63678;47.994;7.854;2023-08-12T13:36:12;7.77;;;4.43;;
2452;SDS011;63678;47.994;7.854;2023-08-12T13:38:45;8.35;;;4.07;;
2452;SDS011;63678;47.994;7.854;2023-08-12T13:41:17;5.97;;;4.00;;
2452;SDS011;63678;47.994;7.854;2023-08-12T13:43:51;11.05;;;4.43;;
2452;SDS011;63678;47.994;7.854;2023-08-12T13:46:23;8.52;;;4.38;;
2452;SDS011;63678;47.994;7.854;2023-08-12T13:48:56;10.00;;;4.60;;
2452;SDS011;63678;47.994;7.854;2023-08-12T13:51:28;9.18;;;4.28;;
2452;SDS011;63678;47.994;7.854;2023-08-12T13:54:04;7.95;;;4.47;;
2452;SDS011;63678;47.994;7.854;2023-08-12T13:56:37;7.90;;;4.60;;
2452;SDS011;63678;47.994;7.854;2023-08-12T13:59:09;9.73;;;4.57;;
2452;SDS011;63678;47.994;7.854;2023-08-12T14:01:42;8.70;;;4.80;;
2452;SDS011;63678;47.994;7.854;2023-08-12T14:04:14;9.60;;;5.05;;
2452;SDS011;63678;47.994;7.854;2023-08-12T14:06:48;7.65;;;4.93;;
2452;SDS011;63678;47.994;7.854;2023-08-12T14:09:23;8.57;;;4.63;;
2452;SDS011;63678;47.994;7.854;2023-08-12T14:11:56;7.50;;;4.47;;
2452;SDS011;63678;47.994;7.854;2023-08-12T14:14:29;7.87;;;4.60;;
2452;SDS011;63678;47.994;7.854;2023-08-12T14:17:02;7.22;;;4.45;;
2452;SDS011;63678;47.994;7.854;2023-08-12T14:19:34;8.50;;;4.40;;
2452;SDS011;63678;47.994;7.854;2023-08-12T14:22:07;8.15;;;4.88;;
2452;SDS011;63678;47.994;7.854;2023-08-12T14:24:39;9.27;;;4.55;;
2452;SDS011;63678;47.994;7.854;2023-08-12T14:27:11;8.30;;;4.60;;
2452;SDS011;63678;47.994;7.854;2023-08-12T14:29:44;11.80;;;4.75;;
2452;SDS011;63678;47.994;7.854;2023-08-12T14:32:17;6.85;;;4.28;;
2452;SDS011;63678;47.994;7.854;2023-08-12T14:34:50;10.88;;;4.68;;
2452;SDS011;63678;47.994;7.854;2023-08-12T14:37:23;8.80;;;4.70;;
2452;SDS011;63678;47.994;7.854;2023-08-12T14:39:55;9.13;;;4.50;;
2452;SDS011;63678;47.994;7.854;2023-08-12T14:42:28;7.88;;;4.40;;
2452;SDS011;63678;47.994;7.854;2023-08-12T14:45:01;7.18;;;4.05;;
2452;SDS011;63678;47.994;7.854;2023-08-12T14:47:34;8.90;;;4.75;;
2452;SDS011;63678;47.994;7.854;2023-08-12T14:50:06;11.93;;;4.82;;
2452;SDS011;63678;47.994;7.854;2023-08-12T14:52:40;9.20;;;4.83;;
2452;SDS011;63678;47.994;7.854;2023-08-12T14:55:13;8.48;;;4.32;;
2452;SDS011;63678;47.994;7.854;2023-08-12T14:57:46;8.75;;;4.10;;
2452;SDS011;63678;47.994;7.854;2023-08-12T15:00:33;8.32;;;4.70;;
2452;SDS011;63678;47.994;7.854;2023-08-12T15:03:10;9.32;;;4.60;;
2452;SDS011;63678;47.994;7.854;2023-08-12T15:05:45;9.00;;;4.50;;
2452;SDS011;63678;47.994;7.854;2023-08-12T15:08:17;9.95;;;4.55;;
2452;SDS011;63678;47.994;7.854;2023-08-12T15:10:50;9.27;;;4.38;;
2452;SDS011;63678;47.994;7.854;2023-08-12T15:13:23;8.90;;;4.93;;
2452;SDS011;63678;47.994;7.854;2023-08-12T15:15:56;8.50;;;4.43;;
2452;SDS011;63678;47.994;7.854;2023-08-12T15:18:34;7.17;;;4.40;;
2452;SDS011;63678;47.994;7.854;2023-08-12T15:21:07;8.55;;;4.20;;
2452;SDS011;63678;47.994;7.854;2023-08-12T15:23:40;9.63;;;4.50;;
2452;SDS011;63678;47.994;7.854;2023-08-12T15:26:12;7.65;;;4.35;;
2452;SDS011;63678;47.994;7.854;2023-08-12T15:28:45;10.88;;;5.53;;
2452;SDS011;63678;47.994;7.854;2023-08-12T15:31:17;11.77;;;4.60;;
2452;SDS011;63678;47.994;7.854;2023-08-12T15:34:05;10.63;;;4.25;;
2452;SDS011;63678;47.994;7.854;2023-08-12T15:36:37;7.32;;;4.00;;
2452;SDS011;63678;47.994;7.854;2023-08-12T15:39:18;9.13;;;4.45;;
2452;SDS011;63678;47.994;7.854;2023-08-12T15:41:51;8.63;;;4.30;;
2452;SDS011;63678;47.994;7.854;2023-08-12T15:44:23;11.20;;;4.20;;
2452;SDS011;63678;47.994;7.854;2023-08-12T15:46:56;8.70;;;4.30;;
2452;SDS011;63678;47.994;7.854;2023-08-12T15:49:31;7.68;;;3.53;;
2452;SDS011;63678;47.994;7.854;2023-08-12T15:52:04;10.45;;;3.88;;